Lorenzo Castelli

Recruteur en chef - Spezia
13 Nov 2027
Samedi
Processus

Personnalité

Adaptabilité (4) Ambition (17) Controverse (17) Loyauté (7) Pression (8) Professionnalisme (8) Sportivité (7) Tempérament (11)

Profil

Style d'entraînement Démocratique
Diplôme Continental Pro
Détermination 5
Gestion des joueurs 8
Motivation 11
Discipline 9
Satisfaction professionnelle
100%
Fatigue
0%
Rôle Recruteur en chef
Salaire 68.8K p/s
Contrat 14.03.2030

Performance

Comportement Bon
Efficacité de l'entraînement
43%
Développement des joueurs
30%
Prévention des blessures
60%
Mise en place tactique
55%

Événements récents

A recommandé une cible de transfert maintenant
A recommandé une cible de transfert maintenant
A participé à une réunion de recrutement maintenant
A participé à une réunion de recrutement maintenant
A participé à une réunion de recrutement maintenant
A évalué un joueur maintenant
A évalué un joueur maintenant
A évalué un joueur maintenant

Suivi en cours

183
Joueur Club Statut Capacité Confiance Observé Dernière observation Dernier vote
Abdulrahman Hamisu Niger Tornadoes Actif 87 / 95 40% 3 12.11.2027 -
Mateo Aguiar Defensa y Justicia Actif 119 / 135 40% 2 12.11.2027 -
Tiago Borquez Gimnasia y Tiro Actif 77 / 82 40% 1 12.11.2027 -
Timofey Simanenka Gomel Actif 93 / 108 40% 2 11.11.2027 -
Agustín Medina Lanús Actif 118 / 115 40% 4 11.11.2027 -
Adrian Skogmar Malmo FF Actif 104 / 112 40% 2 11.11.2027 -
Nicolás Azambuja Danubio Actif 120 / 143 40% 3 10.11.2027 -
Fillip Jenssen Riise Stabaek Actif 98 / 110 40% 3 10.11.2027 -
Mateo Silvetti Inter Miami CF Actif 120 / 118 40% 5 10.11.2027 -
Tiziano Noriega Tristán Suárez Actif 101 / 99 40% 2 09.11.2027 -
Dayann Methalie Everton Actif 140 / 140 40% 2 09.11.2027 -
Giovanni Cantizano Rosario Central Actif 118 / 132 40% 2 09.11.2027 -
Onyeuche Ujunwa Ikorodu City Actif 84 / 90 40% 2 09.11.2027 -
Matías Canedo Rampla Juniors Actif 95 / 94 40% 1 09.11.2027 -
Oskar Spiten-Nysæter Molde Actif 126 / 118 40% 3 07.11.2027 -
Pedro Vian Seewald St. Gallen Actif 95 / 107 40% 2 07.11.2027 -
Felipe Obradovich Gimnasia La Plata Actif 97 / 118 40% 2 07.11.2027 -
Antonio Palac Malmo FF Actif 97 / 98 40% 1 07.11.2027 -
Santino Baldassarri Quilmes Actif 75 / 80 40% 1 07.11.2027 -
Tommaso Mancioppi Almería Actif 86 / 95 40% 1 04.11.2027 -
Lorenzo Venturino Genoa Actif 140 / 148 40% 1 03.11.2027 -
Babis Kostoulas Aston Villa Actif 134 / 153 40% 2 02.11.2027 -
Diogo Guzmán Montevideo City Torque Actif 123 / 135 40% 3 02.11.2027 -
Franco Minerva Platense Actif 124 / 139 40% 1 02.11.2027 -
Joel Medina Independiente Actif 113 / 110 40% 1 01.11.2027 -
Simone Pafundi Udinese Actif 132 / 131 40% 1 01.11.2027 -
Mihajlo Cvetković Anderlecht Actif 126 / 129 40% 1 31.10.2027 -
Thiago D'Archivio Alvarado Actif 92 / 74 40% 1 31.10.2027 -
Juan Camilo Córdoba Deportivo Pereira Actif 93 / 96 40% 1 29.10.2027 -
Joseph Abah Remo Stars Actif 85 / 94 40% 1 29.10.2027 -
Emmanuel Ndubueze Shooting Stars Actif 81 / 94 40% 2 28.10.2027 -
Mateo Alcoba Albion Actif 94 / 99 40% 1 28.10.2027 -
Chimobi Igwilo Rangers International Actif 92 / 95 40% 1 25.10.2027 -
Kauã Moraes Cruzeiro Actif 121 / 148 40% 2 24.10.2027 -
Celías Ingenthron Platense Actif 103 / 127 40% 2 24.10.2027 -
Dylan Salvo Defensores Unidos Actif 98 / 94 40% 1 24.10.2027 -
Matías Acevedo Racing Club Actif 114 / 114 40% 2 22.10.2027 -
Ian Subiabre River Plate Actif 130 / 135 40% 2 22.10.2027 -
Joel Ezra Enyimba Actif 88 / 98 40% 1 22.10.2027 -
Felix Mosquera Deportes Quindio Actif 99 / 82 40% 4 18.10.2027 -
Franco Mastantuono Real Madrid Actif 145 / 139 40% 1 17.10.2027 -
Alexis Rodríguez Deportivo Lara Actif 88 / 93 40% 1 17.10.2027 -
Nicolás Borsotti Defensores Actif 87 / 88 40% 1 17.10.2027 -
Tiago Gordillo San Miguel Actif 79 / 95 40% 3 16.10.2027 -
Troy Nyhammer Tromso Actif 104 / 126 40% 2 15.10.2027 -
Santos Torrealba Zamora Actif 96 / 102 40% 1 15.10.2027 -
Aiden Hezarkhani Real Salt Lake Actif 96 / 78 40% 1 14.10.2027 -
Emiliano Zambrano Gimnasia y Esgrima Actif 90 / 111 40% 1 14.10.2027 -
Luis Yanes Real Cartagena Actif 102 / 114 40% 1 12.10.2027 -
Davide Bartesaghi AC Milan Actif 130 / 143 40% 1 10.10.2027 -
Haruna Attah Katsina United Actif 80 / 93 40% 2 08.10.2027 -
Kabiru Abdullahi Barau Actif 90 / 86 40% 1 06.10.2027 -
Davide De Fraia Latina Actif 76 / 93 40% 1 19.07.2027 -
Jeremías Merlo AC Milan Actif 117 / 141 40% 1 19.07.2027 -
Alex Verón Villarreal Négociation 111 / 137 40% 1 12.07.2027 -
Yaw Adjei Hasaacas Actif 88 / 83 40% 1 12.07.2027 -
Tiziano Cabrera Central Norte Actif 90 / 102 40% 1 12.07.2027 -
Dion Beljo Rayo Vallecano Actif 131 / 132 66% 1 14.06.2027 Approuver
Konstantin Tyukavin Arsenal Négociation 132 / 133 89% 1 01.06.2027 Approuver
Patrick Berg Borussia Mönchengladbach Négociation 141 / 141 62% 1 01.06.2027 Approuver
Adnan Carrasco FC Nantes Négociation 151 / 156 77% 1 01.01.2027 Approuver
Amar Memić Juventude Négociation 127 / 128 62% 1 01.01.2027 Approuver
Thulani Billiat Utrecht Négociation 136 / 136 61% 1 01.01.2027 Approuver
Mattia Felici Cagliari Actif 124 / 125 40% 2 31.12.2026 -
Wandile Duba Maritzburg United Actif 101 / 103 40% 1 31.12.2026 -
Julien Lamy Lokomotiv Plovdiv Actif 105 / 109 40% 1 31.12.2026 -
John Yeboah Venezia Actif 114 / 127 40% 4 29.12.2026 -
Giorgi Kvernadze Frosinone Actif 127 / 110 40% 4 29.12.2026 Observer
Nadir Zortea Bologna Actif 145 / 124 40% 2 28.12.2026 -
Bitello Empoli Actif 135 / 126 40% 3 28.12.2026 -
Thomas Atiemo Wa All Stars Actif 83 / 79 40% 1 28.12.2026 -
Lorenzo Di Stefano Torres Actif 114 / 96 40% 1 28.12.2026 -
Ammar Ramadan DAC Dunajska Streda Actif 129 / 113 40% 1 28.12.2026 -
Prince Ukachukwu Victoria United Actif 104 / 107 40% 1 28.12.2026 -
Antoine Bernede Hellas Verona Actif 133 / 133 40% 1 28.12.2026 -
Danilo Veiga Lecce Actif 124 / 136 40% 1 27.12.2026 -
Thierry Rendall Correia Venezia Actif 135 / 150 40% 2 25.12.2026 Plus d'infos
Bernat Guiu Virtus Entella Actif 114 / 109 40% 2 25.12.2026 -
Simone Rabbi Ravenna Actif 111 / 101 40% 1 25.12.2026 Plus d'infos
Yari Verschaeren Sampdoria Actif 113 / 111 40% 1 25.12.2026 -
Mattia Zennaro Union Brescia Actif 106 / 112 40% 1 25.12.2026 -
Troy Parrott Betis Actif 139 / 135 40% 1 22.12.2026 -
Lucio Castillo Colegiales Actif 118 / 113 40% 2 20.12.2026 -
Gianluca Contini Siracusa Actif 105 / 93 40% 2 20.12.2026 -
Guillaume Furrer Lecco Actif 105 / 115 40% 1 19.12.2026 -
Marin Benko Zadar Actif 130 / 114 40% 5 18.12.2026 -
Amin Sarr Hellas Verona Actif 130 / 140 40% 2 17.12.2026 Plus d'infos
Antonio Cioffi Latina Actif 92 / 101 40% 1 17.12.2026 -
Tomás Chancalay Minnesota United FC Actif 139 / 130 40% 2 15.12.2026 -
Jacques Siwe Rubin Actif 121 / 124 40% 1 15.12.2026 -
Samuele Angori Pisa Actif 131 / 121 40% 1 15.12.2026 -
Relebohile Mofokeng Orlando Pirates Actif 126 / 115 40% 1 15.12.2026 -
Adrián Bernabé Parma Actif 141 / 149 40% 1 15.12.2026 -
Camillo Tavernelli Arezzo Actif 108 / 102 40% 2 12.12.2026 -
Camilo Durán Bloemfontein Celtic Actif 132 / 119 40% 4 12.12.2026 -
Vitinha Genoa Actif 139 / 119 40% 2 11.12.2026 -
Juan Manuel Boselli Krasnodar Actif 128 / 121 40% 1 11.12.2026 -
Juan David Arizala Udinese Actif 122 / 116 40% 2 10.12.2026 -
Samuele Vignato HNK Rijeka Actif 124 / 129 40% 4 10.12.2026 -
Santiago Pierotti Lecce Actif 133 / 117 40% 2 10.12.2026 Plus d'infos
Jerome Karelse Golden Arrows Actif 95 / 94 40% 3 08.12.2026 -
David Miculescu FCSB Actif 117 / 123 40% 1 08.12.2026 -
Mamoudou Karamoko Dinamo Bucharest Actif 109 / 124 40% 2 07.12.2026 -
Matija Frigan Parma Actif 126 / 115 40% 1 07.12.2026 Plus d'infos
Solly Khunyedi Bloemfontein Celtic Actif 104 / 81 40% 1 06.12.2026 -
Mauricio Amaro Atlanta United FC Actif 111 / 109 40% 1 06.12.2026 -
Luca Moro Padova Actif 114 / 116 40% 2 04.12.2026 -
Matteo Rover Reggiana Actif 114 / 122 40% 1 02.12.2026 -
Konan N'Dri Lecce Actif 125 / 112 40% 3 30.11.2026 -
Jack Vale Spartak Myjava Actif 91 / 84 40% 1 30.11.2026 -
Isaac Matondo Koper Actif 114 / 100 40% 1 28.11.2026 -
Mojmír Chytil Hajduk Split Actif 134 / 143 40% 1 25.11.2026 -
Aaron Connolly Ruch Actif 123 / 123 40% 1 25.11.2026 -
Demba Seck Partizan Actif 120 / 114 40% 2 24.11.2026 -
Luca Lipani Frosinone Actif 126 / 136 40% 1 24.11.2026 -
Kévin Denkey FC Cincinnati Actif 121 / 108 40% 3 22.11.2026 -
Karim Konaté Red Bull Salzburg Actif 140 / 151 40% 1 22.11.2026 -
Kelvin Yeboah Minnesota United FC Actif 122 / 112 40% 7 20.11.2026 -
Tijjani Noslin Lazio Actif 142 / 128 40% 1 20.11.2026 -
Tasos Douvikas Como Actif 146 / 134 40% 1 19.11.2026 -
Indrit Tuci Olimpija Ljubljana Actif 105 / 119 40% 1 19.11.2026 -
Ştefan Baiaram Universitatea Craiova Actif 122 / 116 40% 1 11.11.2026 -
Giacomo Raspadori Atalanta Actif 142 / 142 40% 1 10.11.2026 -
Brayan Gil Baltika Actif 120 / 129 40% 1 09.11.2026 -
Mateusz Bogusz Houston Dynamo Actif 124 / 137 40% 2 07.11.2026 -
Filip Stojilković Pisa Actif 132 / 131 40% 1 06.11.2026 -
Marco Pompetti Padova Actif 120 / 114 40% 1 06.11.2026 -
Þórir Jóhann Helgason FC Nordsjaelland Actif 129 / 128 40% 1 06.11.2026 -
Tommy Conway Middlesbrough Actif 122 / 132 40% 1 03.11.2026 -
Diego García Malmo FF Actif 114 / 135 40% 1 02.11.2026 -
Eddie Salcedo OFI Actif 122 / 126 40% 2 30.10.2026 -
Lamine Cissé Peterborough United Actif 118 / 114 40% 1 30.10.2026 -
Yousef Salech Cardiff City Actif 129 / 114 40% 1 27.10.2026 -
Albion Rrahmani Venezia Actif 122 / 138 40% 1 23.10.2026 -
Willem Geubbels Lecce Actif 119 / 136 40% 1 23.10.2026 -
Rafael Navarro St. Louis CITY SC Actif 136 / 129 40% 3 22.10.2026 -
Eugenio Olivera Talleres Actif 91 / 115 40% 2 21.10.2026 -
Martín Ojeda Orlando City Actif 134 / 149 40% 1 21.10.2026 -
Richard Koné Queens Park Rangers Actif 127 / 127 40% 2 18.10.2026 -
Marco Miori Alvarado Actif 113 / 109 40% 1 15.10.2026 -
Joe Gelhardt Hull City Actif 129 / 119 40% 1 14.10.2026 -
Raoul Bellanova Atalanta Actif 143 / 135 40% 1 14.10.2026 -
Pedro Souto Temperley Actif 112 / 124 40% 1 14.10.2026 -
Wessam Abou Ali Columbus Crew Actif 136 / 139 40% 1 11.10.2026 -
Matías Giménez Rojas Argentinos Juniors Actif 121 / 128 40% 1 11.10.2026 -
Enzo Avaro Mitre Actif 109 / 116 40% 1 10.10.2026 -
Liel Abada Charlotte Football Club Actif 126 / 137 40% 1 10.10.2026 -
Nicolò Zaniolo Udinese Actif 142 / 150 40% 1 09.10.2026 -
Julio Enciso Ipswich Town Actif 150 / 141 40% 1 09.10.2026 -
Joaquín García Vélez Actif 120 / 122 40% 1 09.10.2026 -
Matteo Pérez Vinlöf Dinamo Zagreb Actif 124 / 118 40% 1 08.10.2026 -
Agustín Méndez Belgrano Actif 97 / 91 40% 1 08.10.2026 -
Reuell Walters Luton Town Actif 117 / 120 40% 1 08.10.2026 -
Ramiro Ruiz Rodríguez Atlético Tucumán Actif 123 / 102 40% 2 07.10.2026 -
Armando Broja Burnley Actif 129 / 123 40% 1 07.10.2026 -
Alexis Cuello San Lorenzo Actif 135 / 130 40% 1 07.10.2026 -
El Hadji Malick Diouf Brentford Actif 143 / 147 40% 1 06.10.2026 -
Francisco Arias Gimnasia y Esgrima Actif 85 / 88 40% 1 06.10.2026 -
Luca Langoni New England Revolution Actif 117 / 112 40% 2 23.09.2026 -
Claudio Campostrini All Boys Actif 107 / 98 40% 1 18.09.2026 -
Enzo González Defensores Actif 94 / 85 40% 1 17.09.2026 -
Leonardo Campana New England Revolution Actif 124 / 124 40% 1 17.09.2026 -
Nicolás Molina Temperley Actif 116 / 95 40% 1 16.09.2026 -
Mauro Molina Estudiantes Actif 94 / 117 40% 1 14.09.2026 -
Dejan Joveljić Seattle Sounders Actif 128 / 124 40% 1 13.09.2026 -
Tiziano Dornell Almagro Actif 99 / 137 40% 1 13.09.2026 -
Mauro Méndez Tigre Actif 116 / 114 40% 1 11.09.2026 -
Iván Tapia Barracas Central Actif 107 / 118 40% 1 11.09.2026 -
Julián Palacios Unión de Santa Fe Actif 129 / 129 40% 1 11.09.2026 -
Aaron Spetale Quilmes Actif 103 / 94 40% 1 09.09.2026 -
Franco Ayunta Temperley Actif 114 / 126 40% 1 09.09.2026 -
Louis Munteanu DC United Actif 125 / 131 40% 1 08.09.2026 -
Nicolò Savona Nottingham Forest Actif 144 / 141 40% 1 08.09.2026 -
Franco Watson Lanús Actif 111 / 134 40% 1 08.09.2026 -
Ramiro Hernandes Belgrano Actif 124 / 121 40% 1 08.09.2026 -
Ezequiel Almirón Estudiantes Actif 117 / 98 40% 1 31.08.2026 -
Ignacio Russo Tigre Actif 117 / 124 40% 1 31.08.2026 -
Gaspar Duarte Rosario Central Actif 105 / 112 40% 1 31.08.2026 -
Pedro Silva Torrejón Gimnasia La Plata Actif 119 / 127 40% 1 17.08.2026 -
Tommaso Pobega Bologna Actif 144 / 139 40% 1 17.08.2026 -
Nicolás Orsini Barracas Central Actif 105 / 117 40% 1 10.08.2026 -
César Ibáñez Huracán Actif 129 / 116 40% 1 04.08.2026 -
Edoardo Bove Watford Actif 132 / 117 40% 1 04.08.2026 -